sensor_id;sensor_type;location;lat;lon;timestamp;P1;durP1;ratioP1;P2;durP2;ratioP2
49147;SDS011;41980;45.550;12.070;2022-09-21T00:04:02;4.25;;;1.10;;
49147;SDS011;41980;45.550;12.070;2022-09-21T00:10:20;2.15;;;0.70;;
49147;SDS011;41980;45.550;12.070;2022-09-21T00:22:52;2.25;;;0.60;;
49147;SDS011;41980;45.550;12.070;2022-09-21T00:29:05;2.28;;;1.10;;
49147;SDS011;41980;45.550;12.070;2022-09-21T00:35:21;1.42;;;0.57;;
49147;SDS011;41980;45.550;12.070;2022-09-21T00:48:46;1.10;;;0.50;;
49147;SDS011;41980;45.550;12.070;2022-09-21T03:40:29;1.88;;;0.60;;
49147;SDS011;41980;45.550;12.070;2022-09-21T03:48:09;1.20;;;0.63;;
49147;SDS011;41980;45.550;12.070;2022-09-21T04:02:37;1.15;;;0.65;;
49147;SDS011;41980;45.550;12.070;2022-09-21T04:17:07;1.33;;;0.70;;
49147;SDS011;41980;45.550;12.070;2022-09-21T04:24:51;1.30;;;0.60;;
49147;SDS011;41980;45.550;12.070;2022-09-21T04:32:47;1.23;;;0.60;;
49147;SDS011;41980;45.550;12.070;2022-09-21T05:03:17;1.40;;;0.68;;
49147;SDS011;41980;45.550;12.070;2022-09-21T05:10:09;1.65;;;0.55;;
49147;SDS011;41980;45.550;12.070;2022-09-21T05:17:29;1.10;;;0.50;;
49147;SDS011;41980;45.550;12.070;2022-09-21T05:39:44;1.02;;;0.60;;
49147;SDS011;41980;45.550;12.070;2022-09-21T06:09:41;1.50;;;0.63;;
49147;SDS011;41980;45.550;12.070;2022-09-21T06:16:00;1.27;;;0.50;;
49147;SDS011;41980;45.550;12.070;2022-09-21T06:23:12;1.02;;;0.40;;
49147;SDS011;41980;45.550;12.070;2022-09-21T06:29:15;2.33;;;0.70;;
49147;SDS011;41980;45.550;12.070;2022-09-21T06:35:24;3.33;;;0.70;;
49147;SDS011;41980;45.550;12.070;2022-09-21T06:41:26;2.58;;;0.70;;
49147;SDS011;41980;45.550;12.070;2022-09-21T06:47:33;3.55;;;0.70;;
49147;SDS011;41980;45.550;12.070;2022-09-21T06:53:44;1.30;;;0.60;;
49147;SDS011;41980;45.550;12.070;2022-09-21T06:59:46;1.70;;;0.77;;
49147;SDS011;41980;45.550;12.070;2022-09-21T07:05:48;2.03;;;0.60;;
49147;SDS011;41980;45.550;12.070;2022-09-21T07:11:51;2.13;;;0.95;;
49147;SDS011;41980;45.550;12.070;2022-09-21T07:24:11;3.00;;;0.60;;
49147;SDS011;41980;45.550;12.070;2022-09-21T07:30:16;3.05;;;0.70;;
49147;SDS011;41980;45.550;12.070;2022-09-21T07:36:20;1.55;;;0.60;;
49147;SDS011;41980;45.550;12.070;2022-09-21T07:42:31;1.55;;;0.60;;
49147;SDS011;41980;45.550;12.070;2022-09-21T07:48:36;1.70;;;0.80;;
49147;SDS011;41980;45.550;12.070;2022-09-21T07:54:38;2.05;;;0.77;;
49147;SDS011;41980;45.550;12.070;2022-09-21T08:00:42;2.53;;;0.70;;
49147;SDS011;41980;45.550;12.070;2022-09-21T08:06:44;2.03;;;0.60;;
49147;SDS011;41980;45.550;12.070;2022-09-21T08:12:46;2.03;;;0.60;;
49147;SDS011;41980;45.550;12.070;2022-09-21T08:18:48;2.60;;;0.70;;
49147;SDS011;41980;45.550;12.070;2022-09-21T08:24:51;2.63;;;0.80;;
49147;SDS011;41980;45.550;12.070;2022-09-21T08:30:58;3.45;;;0.90;;
49147;SDS011;41980;45.550;12.070;2022-09-21T08:37:03;2.13;;;0.70;;
49147;SDS011;41980;45.550;12.070;2022-09-21T08:43:38;1.23;;;0.60;;
49147;SDS011;41980;45.550;12.070;2022-09-21T08:49:45;3.28;;;0.50;;
49147;SDS011;41980;45.550;12.070;2022-09-21T08:55:55;1.35;;;0.40;;
49147;SDS011;41980;45.550;12.070;2022-09-21T09:27:21;1.40;;;0.40;;
49147;SDS011;41980;45.550;12.070;2022-09-21T09:33:35;1.23;;;0.40;;
49147;SDS011;41980;45.550;12.070;2022-09-21T09:39:50;0.85;;;0.30;;
49147;SDS011;41980;45.550;12.070;2022-09-21T09:46:01;1.50;;;0.60;;
49147;SDS011;41980;45.550;12.070;2022-09-21T09:52:12;0.60;;;0.30;;
49147;SDS011;41980;45.550;12.070;2022-09-21T09:58:18;0.88;;;0.38;;
49147;SDS011;41980;45.550;12.070;2022-09-21T10:04:21;1.10;;;0.40;;
49147;SDS011;41980;45.550;12.070;2022-09-21T10:16:33;0.82;;;0.30;;
49147;SDS011;41980;45.550;12.070;2022-09-21T10:22:43;1.45;;;0.60;;
49147;SDS011;41980;45.550;12.070;2022-09-21T10:35:00;0.93;;;0.30;;
49147;SDS011;41980;45.550;12.070;2022-09-21T10:41:05;1.27;;;0.40;;
49147;SDS011;41980;45.550;12.070;2022-09-21T10:59:25;1.85;;;0.40;;
49147;SDS011;41980;45.550;12.070;2022-09-21T11:05:31;1.15;;;0.40;;
49147;SDS011;41980;45.550;12.070;2022-09-21T11:11:40;2.25;;;0.50;;
49147;SDS011;41980;45.550;12.070;2022-09-21T11:30:14;1.60;;;0.40;;
49147;SDS011;41980;45.550;12.070;2022-09-21T11:36:21;1.25;;;0.38;;
49147;SDS011;41980;45.550;12.070;2022-09-21T11:48:43;1.05;;;0.30;;
49147;SDS011;41980;45.550;12.070;2022-09-21T12:25:30;0.82;;;0.32;;
49147;SDS011;41980;45.550;12.070;2022-09-21T12:31:37;1.75;;;0.57;;
49147;SDS011;41980;45.550;12.070;2022-09-21T12:37:46;0.98;;;0.40;;
49147;SDS011;41980;45.550;12.070;2022-09-21T12:56:20;0.50;;;0.23;;
49147;SDS011;41980;45.550;12.070;2022-09-21T13:08:35;1.27;;;0.50;;
49147;SDS011;41980;45.550;12.070;2022-09-21T13:14:43;2.70;;;0.70;;
49147;SDS011;41980;45.550;12.070;2022-09-21T13:20:48;1.25;;;0.50;;
49147;SDS011;41980;45.550;12.070;2022-09-21T13:26:56;0.77;;;0.30;;
49147;SDS011;41980;45.550;12.070;2022-09-21T13:39:15;1.08;;;0.40;;
49147;SDS011;41980;45.550;12.070;2022-09-21T13:51:23;0.70;;;0.30;;
49147;SDS011;41980;45.550;12.070;2022-09-21T14:15:53;1.23;;;0.30;;
49147;SDS011;41980;45.550;12.070;2022-09-21T14:28:04;0.55;;;0.30;;
49147;SDS011;41980;45.550;12.070;2022-09-21T14:34:15;0.98;;;0.40;;
49147;SDS011;41980;45.550;12.070;2022-09-21T15:23:27;0.63;;;0.25;;
49147;SDS011;41980;45.550;12.070;2022-09-21T15:29:32;1.00;;;0.40;;
49147;SDS011;41980;45.550;12.070;2022-09-21T15:35:34;0.98;;;0.45;;
49147;SDS011;41980;45.550;12.070;2022-09-21T15:47:42;0.95;;;0.40;;
49147;SDS011;41980;45.550;12.070;2022-09-21T15:53:47;0.70;;;0.28;;
49147;SDS011;41980;45.550;12.070;2022-09-21T15:59:52;1.52;;;0.40;;
49147;SDS011;41980;45.550;12.070;2022-09-21T16:05:56;1.55;;;0.50;;
49147;SDS011;41980;45.550;12.070;2022-09-21T16:12:00;1.08;;;0.40;;
49147;SDS011;41980;45.550;12.070;2022-09-21T16:24:35;0.82;;;0.30;;
49147;SDS011;41980;45.550;12.070;2022-09-21T16:30:48;0.70;;;0.30;;
49147;SDS011;41980;45.550;12.070;2022-09-21T16:36:51;0.75;;;0.30;;
49147;SDS011;41980;45.550;12.070;2022-09-21T16:42:55;1.05;;;0.40;;
49147;SDS011;41980;45.550;12.070;2022-09-21T16:48:57;0.30;;;0.30;;
49147;SDS011;41980;45.550;12.070;2022-09-21T16:55:01;0.47;;;0.30;;
49147;SDS011;41980;45.550;12.070;2022-09-21T17:01:03;0.70;;;0.25;;
49147;SDS011;41980;45.550;12.070;2022-09-21T17:07:10;0.55;;;0.30;;
49147;SDS011;41980;45.550;12.070;2022-09-21T17:13:13;0.70;;;0.20;;
49147;SDS011;41980;45.550;12.070;2022-09-21T17:19:20;0.80;;;0.40;;
49147;SDS011;41980;45.550;12.070;2022-09-21T17:25:22;0.70;;;0.30;;
49147;SDS011;41980;45.550;12.070;2022-09-21T17:31:24;0.98;;;0.40;;
49147;SDS011;41980;45.550;12.070;2022-09-21T17:37:28;0.77;;;0.30;;
49147;SDS011;41980;45.550;12.070;2022-09-21T17:43:34;0.73;;;0.38;;
49147;SDS011;41980;45.550;12.070;2022-09-21T17:49:42;1.20;;;0.50;;
49147;SDS011;41980;45.550;12.070;2022-09-21T17:55:52;1.00;;;0.50;;
49147;SDS011;41980;45.550;12.070;2022-09-21T18:01:58;1.48;;;0.68;;
49147;SDS011;41980;45.550;12.070;2022-09-21T18:08:01;1.40;;;0.70;;
49147;SDS011;41980;45.550;12.070;2022-09-21T18:14:07;1.65;;;0.65;;
49147;SDS011;41980;45.550;12.070;2022-09-21T18:26:22;1.58;;;0.80;;
49147;SDS011;41980;45.550;12.070;2022-09-21T18:50:56;2.40;;;0.82;;
49147;SDS011;41980;45.550;12.070;2022-09-21T18:57:07;5.28;;;1.33;;
49147;SDS011;41980;45.550;12.070;2022-09-21T19:03:13;1.92;;;0.90;;
49147;SDS011;41980;45.550;12.070;2022-09-21T19:15:26;4.63;;;0.77;;
49147;SDS011;41980;45.550;12.070;2022-09-21T19:27:39;1.55;;;0.90;;
49147;SDS011;41980;45.550;12.070;2022-09-21T19:33:49;1.98;;;0.70;;
49147;SDS011;41980;45.550;12.070;2022-09-21T19:39:51;1.85;;;0.60;;
49147;SDS011;41980;45.550;12.070;2022-09-21T19:52:05;1.40;;;0.60;;
49147;SDS011;41980;45.550;12.070;2022-09-21T19:58:11;1.25;;;0.60;;
49147;SDS011;41980;45.550;12.070;2022-09-21T20:04:20;1.63;;;0.80;;
49147;SDS011;41980;45.550;12.070;2022-09-21T20:10:40;1.70;;;0.70;;
49147;SDS011;41980;45.550;12.070;2022-09-21T20:16:49;1.40;;;0.70;;
49147;SDS011;41980;45.550;12.070;2022-09-21T20:22:55;1.83;;;0.70;;
49147;SDS011;41980;45.550;12.070;2022-09-21T20:28:58;1.77;;;0.90;;
49147;SDS011;41980;45.550;12.070;2022-09-21T20:35:02;2.10;;;1.00;;
49147;SDS011;41980;45.550;12.070;2022-09-21T20:41:12;1.70;;;0.80;;
49147;SDS011;41980;45.550;12.070;2022-09-21T20:47:16;1.85;;;0.80;;
49147;SDS011;41980;45.550;12.070;2022-09-21T20:53:19;2.22;;;0.90;;
49147;SDS011;41980;45.550;12.070;2022-09-21T20:59:21;2.28;;;1.00;;
49147;SDS011;41980;45.550;12.070;2022-09-21T21:05:23;1.88;;;1.05;;
49147;SDS011;41980;45.550;12.070;2022-09-21T21:11:26;1.73;;;0.80;;
49147;SDS011;41980;45.550;12.070;2022-09-21T21:17:28;3.10;;;1.23;;
49147;SDS011;41980;45.550;12.070;2022-09-21T21:23:31;2.28;;;1.10;;
49147;SDS011;41980;45.550;12.070;2022-09-21T21:29:53;2.95;;;1.08;;
49147;SDS011;41980;45.550;12.070;2022-09-21T21:36:01;4.07;;;1.30;;
49147;SDS011;41980;45.550;12.070;2022-09-21T21:42:06;2.45;;;1.50;;
49147;SDS011;41980;45.550;12.070;2022-09-21T21:48:09;3.55;;;1.90;;
49147;SDS011;41980;45.550;12.070;2022-09-21T21:54:11;3.17;;;1.58;;
49147;SDS011;41980;45.550;12.070;2022-09-21T22:00:13;2.35;;;1.33;;
49147;SDS011;41980;45.550;12.070;2022-09-21T22:06:15;2.50;;;1.40;;
49147;SDS011;41980;45.550;12.070;2022-09-21T22:12:17;4.40;;;1.55;;
49147;SDS011;41980;45.550;12.070;2022-09-21T22:18:19;2.05;;;1.10;;
49147;SDS011;41980;45.550;12.070;2022-09-21T22:24:21;2.55;;;1.40;;
49147;SDS011;41980;45.550;12.070;2022-09-21T22:30:24;2.38;;;1.23;;
49147;SDS011;41980;45.550;12.070;2022-09-21T22:36:29;2.30;;;0.90;;
49147;SDS011;41980;45.550;12.070;2022-09-21T22:42:32;2.38;;;1.25;;
49147;SDS011;41980;45.550;12.070;2022-09-21T22:48:34;1.92;;;1.05;;
49147;SDS011;41980;45.550;12.070;2022-09-21T22:54:36;2.20;;;1.20;;
49147;SDS011;41980;45.550;12.070;2022-09-21T23:00:38;2.03;;;1.10;;
49147;SDS011;41980;45.550;12.070;2022-09-21T23:06:42;2.17;;;1.20;;
49147;SDS011;41980;45.550;12.070;2022-09-21T23:12:48;1.70;;;0.90;;
49147;SDS011;41980;45.550;12.070;2022-09-21T23:18:51;1.80;;;1.00;;
49147;SDS011;41980;45.550;12.070;2022-09-21T23:24:54;2.40;;;1.60;;
49147;SDS011;41980;45.550;12.070;2022-09-21T23:37:03;1.58;;;0.82;;
49147;SDS011;41980;45.550;12.070;2022-09-21T23:43:06;1.85;;;0.80;;
49147;SDS011;41980;45.550;12.070;2022-09-21T23:49:08;2.17;;;1.10;;
49147;SDS011;41980;45.550;12.070;2022-09-21T23:55:10;2.10;;;1.08;;
